Farmingdale, NY

4:08 AM EST on January 18, 2017 (GMT -0500)
Republic | | Change Station

Elev 82 ft 40.73 °N, 73.41 °W | Updated 15 minutes ago

Light Rain
Light Rain
42 °F
Feels Like 37 °F
N
8
Wind Variable Wind from NE

Today
High -- | Low -- °F
--% Chance of Precip.
Yesterday
High -- | Low -- °F
Precip. -- in
Pressure 29.87 in
Visibility 1.8 miles
Clouds Overcast 600 ft
Windchill 37 °F
Dew Point 40 °F
Humidity 92%
Rainfall 0.23 in
Snow Depth Not available.
7:14 AM 4:54 PM
Waning Gibbous, 65% visible
METAR KFRG 180853Z AUTO 04007KT 1 3/4SM -RA OVC006 06/04 A2987 RMK AO2 SFC VIS 10 SLP115 P0002 60003 T00560044 58017
Pressure 29.87 in
Visibility 1.8 miles
Clouds Overcast 600 ft
Windchill 37 °F
Dew Point 40 °F
Humidity 92%
Rainfall 0.23 in
Snow Depth Not available.
7:14 AM 4:54 PM
Waning Gibbous, 65% visible
METAR KFRG 180853Z AUTO 04007KT 1 3/4SM -RA OVC006 06/04 A2987 RMK AO2 SFC VIS 10 SLP115 P0002 60003 T00560044 58017

Get Your Daily Forecast Email!

Thanks for signing up!

Be on the lookout for a verification email in your inbox.

You'll start receiving the daily forecast at 8 AM.

×

10-Day Weather Forecast

Almanac

Astronomy

Jan. 18, 2017 Rise Set
Actual Time
Civil Twilight
Nautical Twilight
Astronomical Twilight
Moon
Length of Visible Light
Length of Day
Tomorrow will be .
, % of the Moon is Illuminated

Today's Extremes

State Highs State Lows

Community

WunderPhotos

Upload Photos

1,962,540 photos uploaded!

WunderBlog® & News

Nearby

Air Quality

  Air Quality AQ Index Pollutant
Not available.

Snow Depth

Station Depth Elevation

Earthquake Activity

City Distance Mag. Time & Date
Minimum magnitude displayed is 2.5.

Coastal Water Temperatures

Place Temperature

Stations

Nearby Weather Stations

Station Location Temp. Windchill Dew Point Humidity Wind Precip. Elev Updated Type
                   

Watches & Warnings

There are currently no watches in effect.